createdAt,value
2022-08-08T00:01:13.573Z,101748.72
2022-08-08T00:04:00.623Z,101747.63
2022-08-08T00:06:39.083Z,101744.50
2022-08-08T00:09:16.081Z,101742.00
2022-08-08T00:12:07.214Z,101732.38
2022-08-08T00:14:56.848Z,101732.38
2022-08-08T00:17:58.594Z,101735.28
2022-08-08T00:20:34.281Z,101726.19
2022-08-08T00:23:08.497Z,101734.09
2022-08-08T00:25:46.502Z,101734.41
2022-08-08T00:28:38.923Z,101737.47
2022-08-08T00:32:28.276Z,101734.63
2022-08-08T00:34:57.494Z,101734.91
2022-08-08T00:37:47.510Z,101733.78
2022-08-08T00:41:09.988Z,101737.75
2022-08-08T00:44:23.585Z,101739.81
2022-08-08T00:47:23.542Z,101736.66
2022-08-08T00:50:15.702Z,101739.19
2022-08-08T00:52:54.581Z,101739.69
2022-08-08T00:55:52.494Z,101741.00
2022-08-08T00:59:00.962Z,101738.28
2022-08-08T01:01:39.150Z,101740.88
2022-08-08T01:04:41.999Z,101728.13
2022-08-08T01:07:55.531Z,101734.91
2022-08-08T01:10:44.953Z,101732.63
2022-08-08T01:13:43.578Z,101741.88
2022-08-08T01:16:49.776Z,101742.22
2022-08-08T01:19:52.432Z,101733.69
2022-08-08T01:22:58.855Z,101733.03
2022-08-08T01:26:05.973Z,101730.22
2022-08-08T01:29:23.973Z,101736.22
2022-08-08T01:32:31.473Z,101732.00
2022-08-08T01:35:12.998Z,101725.56
2022-08-08T01:38:14.022Z,101728.56
2022-08-08T01:40:54.249Z,101728.97
2022-08-08T01:43:39.195Z,101727.16
2022-08-08T01:46:24.958Z,101728.22
2022-08-08T01:49:03.186Z,101726.44
2022-08-08T01:52:29.459Z,101725.75
2022-08-08T01:55:25.755Z,101725.75
2022-08-08T01:58:12.265Z,101730.25
2022-08-08T02:00:48.467Z,101733.97
2022-08-08T02:03:57.400Z,101732.88
2022-08-08T02:06:36.821Z,101734.50
2022-08-08T02:10:01.974Z,101745.34
2022-08-08T02:12:23.670Z,101732.63
2022-08-08T02:14:59.641Z,101736.72
2022-08-08T02:17:42.718Z,101738.31
2022-08-08T02:21:00.667Z,101736.72
2022-08-08T02:23:16.374Z,101737.56
2022-08-08T02:25:50.911Z,101742.72
2022-08-08T02:28:35.135Z,101733.41
2022-08-08T02:31:43.669Z,101731.63
2022-08-08T02:34:08.580Z,101729.84
2022-08-08T02:36:47.869Z,101725.97
2022-08-08T02:39:40.612Z,101722.06
2022-08-08T02:42:47.882Z,101716.47
2022-08-08T02:46:05.148Z,101716.06
2022-08-08T02:49:38.080Z,101718.03
2022-08-08T02:52:34.719Z,101712.09
2022-08-08T02:55:39.125Z,101712.59
2022-08-08T02:58:54.265Z,101715.19
2022-08-08T03:01:59.762Z,101714.50
2022-08-08T03:05:15.715Z,101724.91
2022-08-08T03:08:37.377Z,101724.38
2022-08-08T03:12:02.002Z,101718.66
2022-08-08T03:15:59.073Z,101729.66
2022-08-08T03:17:39.926Z,101732.16
2022-08-08T03:20:10.524Z,101725.22
2022-08-08T03:22:45.858Z,101727.72
2022-08-08T03:25:18.793Z,101731.41
2022-08-08T03:27:56.257Z,101732.44
2022-08-08T03:30:24.971Z,101733.31
2022-08-08T03:33:54.624Z,101746.97
2022-08-08T03:35:59.713Z,101738.59
2022-08-08T03:38:54.982Z,101731.47
2022-08-08T03:42:12.359Z,101740.09
2022-08-08T03:44:06.102Z,101732.88
2022-08-08T03:46:47.103Z,101739.72
2022-08-08T03:49:59.010Z,101741.41
2022-08-08T03:52:08.381Z,101741.81
2022-08-08T03:55:02.222Z,101748.25
2022-08-08T03:58:31.181Z,101746.91
2022-08-08T04:00:21.786Z,101749.25
2022-08-08T04:03:03.374Z,101753.03
2022-08-08T04:05:35.201Z,101746.63
2022-08-08T04:08:06.849Z,101748.84
2022-08-08T04:10:37.251Z,101752.44
2022-08-08T04:13:17.509Z,101742.25
2022-08-08T04:16:03.351Z,101756.84
2022-08-08T04:18:37.053Z,101748.72
2022-08-08T04:21:10.061Z,101747.50
2022-08-08T04:24:12.280Z,101752.03
2022-08-08T04:26:27.071Z,101757.72
2022-08-08T04:29:03.558Z,101749.22
2022-08-08T04:31:59.185Z,101744.84
2022-08-08T04:34:20.110Z,101750.25
2022-08-08T04:36:47.869Z,101750.59
2022-08-08T04:40:04.127Z,101755.22
2022-08-08T04:42:05.265Z,101757.72
2022-08-08T04:44:33.953Z,101764.56
2022-08-08T04:47:01.858Z,101767.28
2022-08-08T04:50:01.016Z,101773.63
2022-08-08T04:52:17.398Z,101775.06
2022-08-08T04:54:50.732Z,101779.16
2022-08-08T04:57:20.002Z,101776.81
2022-08-08T04:59:49.478Z,101781.28
2022-08-08T05:02:20.290Z,101782.34
2022-08-08T05:04:56.490Z,101787.03
2022-08-08T05:07:38.106Z,101787.81
2022-08-08T05:10:12.739Z,101788.00
2022-08-08T05:13:00.292Z,101792.09
2022-08-08T05:15:31.438Z,101796.38
2022-08-08T05:18:17.857Z,101793.06
2022-08-08T05:20:50.251Z,101787.66
2022-08-08T05:23:20.661Z,101796.56
2022-08-08T05:25:49.815Z,101797.47
2022-08-08T05:28:48.381Z,101800.38
2022-08-08T05:31:19.467Z,101808.84
2022-08-08T05:33:54.973Z,101816.06
2022-08-08T05:36:28.249Z,101814.19
2022-08-08T05:38:58.934Z,101814.81
2022-08-08T05:41:27.996Z,101805.22
2022-08-08T05:44:13.694Z,101807.25
2022-08-08T05:46:42.838Z,101808.69
2022-08-08T05:49:15.752Z,101813.53
2022-08-08T05:51:48.730Z,101817.94
2022-08-08T05:54:28.214Z,101819.50
2022-08-08T05:57:12.519Z,101826.56
2022-08-08T05:59:59.216Z,101824.13
2022-08-08T06:02:48.657Z,101821.44
2022-08-08T06:05:34.324Z,101823.75
2022-08-08T06:08:10.157Z,101831.81
2022-08-08T06:10:54.626Z,101829.28
2022-08-08T06:13:23.494Z,101836.06
2022-08-08T06:15:55.946Z,101830.44
2022-08-08T06:18:25.177Z,101835.66
2022-08-08T06:20:57.048Z,101831.75
2022-08-08T06:23:39.712Z,101837.00
2022-08-08T06:26:43.712Z,101842.81
2022-08-08T06:29:26.598Z,101846.13
2022-08-08T06:32:11.053Z,101850.88
2022-08-08T06:34:56.703Z,101847.88
2022-08-08T06:37:40.286Z,101842.81
2022-08-08T06:40:16.094Z,101847.47
2022-08-08T06:42:51.292Z,101850.53
2022-08-08T06:45:23.027Z,101853.66
2022-08-08T06:48:01.156Z,101856.75
2022-08-08T06:50:33.755Z,101855.69
2022-08-08T06:53:13.811Z,101858.88
2022-08-08T06:55:43.360Z,101854.59
2022-08-08T06:58:11.611Z,101858.50
2022-08-08T07:00:41.250Z,101847.38
2022-08-08T07:03:51.538Z,101854.59
2022-08-08T07:06:06.437Z,101853.19
2022-08-08T07:08:40.015Z,101857.66
2022-08-08T07:11:22.229Z,101866.53
2022-08-08T07:14:00.605Z,101861.91
2022-08-08T07:16:51.189Z,101867.28
2022-08-08T07:19:31.555Z,101862.22
2022-08-08T07:22:05.656Z,101863.38
2022-08-08T07:24:44.905Z,101859.44
2022-08-08T07:27:17.151Z,101866.44
2022-08-08T07:29:59.594Z,101858.84
2022-08-08T07:32:31.385Z,101871.25
2022-08-08T07:35:02.754Z,101871.59
2022-08-08T07:37:56.552Z,101864.44
2022-08-08T07:40:29.067Z,101872.91
2022-08-08T07:42:59.484Z,101880.44
2022-08-08T07:45:34.673Z,101881.19
2022-08-08T07:48:15.439Z,101881.75
2022-08-08T07:50:47.575Z,101877.03
2022-08-08T07:53:52.797Z,101869.81
2022-08-08T07:56:13.212Z,101878.03
2022-08-08T07:58:45.298Z,101876.72
2022-08-08T08:01:27.227Z,101875.50
2022-08-08T08:04:17.661Z,101883.03
2022-08-08T08:06:47.695Z,101878.72
2022-08-08T08:09:24.858Z,101884.44
2022-08-08T08:11:56.823Z,101883.53
2022-08-08T08:14:31.744Z,101881.78
2022-08-08T08:16:59.818Z,101888.97
2022-08-08T08:19:45.537Z,101880.81
2022-08-08T08:22:16.127Z,101872.00
2022-08-08T08:24:59.054Z,101878.69
2022-08-08T08:27:36.012Z,101878.41
2022-08-08T08:30:03.866Z,101877.22
2022-08-08T08:32:36.447Z,101881.19
2022-08-08T08:35:05.243Z,101887.75
2022-08-08T08:37:53.018Z,101876.69
2022-08-08T08:40:25.050Z,101871.22
2022-08-08T08:42:54.567Z,101879.41
2022-08-08T08:45:23.486Z,101879.66
2022-08-08T08:47:54.127Z,101873.28
2022-08-08T08:50:33.909Z,101872.91
2022-08-08T08:53:54.051Z,101879.97
2022-08-08T08:56:01.455Z,101872.78
2022-08-08T08:58:33.694Z,101869.47
2022-08-08T09:01:08.428Z,101877.88
2022-08-08T09:03:47.040Z,101859.22
2022-08-08T09:06:28.391Z,101866.72
2022-08-08T09:09:07.296Z,101860.72
2022-08-08T09:12:01.676Z,101862.75
2022-08-08T09:14:34.180Z,101856.53
2022-08-08T09:17:11.579Z,101853.09
2022-08-08T09:21:59.386Z,101853.41
2022-08-08T09:22:31.297Z,101853.25
2022-08-08T09:25:00.793Z,101854.84
2022-08-08T09:27:57.691Z,101849.44
2022-08-08T09:30:20.132Z,101846.84
2022-08-08T09:33:12.753Z,101840.53
2022-08-08T09:35:50.196Z,101843.81
2022-08-08T09:38:32.647Z,101847.31
2022-08-08T09:41:06.550Z,101848.28
2022-08-08T09:44:05.276Z,101846.44
2022-08-08T09:46:45.607Z,101837.81
2022-08-08T09:49:42.499Z,101840.09
2022-08-08T09:52:56.010Z,101827.28
2022-08-08T09:55:08.496Z,101822.41
2022-08-08T09:57:46.321Z,101823.81
2022-08-08T10:00:53.155Z,101823.72
2022-08-08T10:03:15.833Z,101818.06
2022-08-08T10:05:48.105Z,101822.56
2022-08-08T10:08:17.662Z,101821.69
2022-08-08T10:10:50.988Z,101822.91
2022-08-08T10:13:29.985Z,101817.47
2022-08-08T10:16:03.787Z,101816.75
2022-08-08T10:18:34.047Z,101819.63
2022-08-08T10:21:08.249Z,101813.44
2022-08-08T10:23:58.974Z,101805.53
2022-08-08T10:26:59.298Z,101804.38
2022-08-08T10:29:43.976Z,101819.19
2022-08-08T10:32:48.649Z,101816.78
2022-08-08T10:36:08.438Z,101801.63
2022-08-08T10:38:10.801Z,101801.00
2022-08-08T10:40:45.240Z,101799.94
2022-08-08T10:43:14.263Z,101804.22
2022-08-08T10:45:55.624Z,101803.28
2022-08-08T10:48:35.937Z,101800.69
2022-08-08T10:51:13.272Z,101806.97
2022-08-08T10:53:56.371Z,101808.22
2022-08-08T10:56:32.577Z,101799.94
2022-08-08T10:59:06.209Z,101803.38
2022-08-08T11:01:38.413Z,101791.31
2022-08-08T11:04:10.511Z,101794.56
2022-08-08T11:06:41.828Z,101785.66
2022-08-08T11:09:19.767Z,101794.47
2022-08-08T11:12:06.287Z,101799.25
2022-08-08T11:14:50.608Z,101793.72
2022-08-08T11:17:58.290Z,101786.44
2022-08-08T11:20:14.081Z,101794.06
2022-08-08T11:22:50.913Z,101777.63
2022-08-08T11:25:23.002Z,101785.28
2022-08-08T11:28:14.116Z,101781.50
2022-08-08T11:30:52.676Z,101777.50
2022-08-08T11:33:51.768Z,101777.41
2022-08-08T11:36:15.465Z,101782.75
2022-08-08T11:38:55.557Z,101777.31
2022-08-08T11:41:24.822Z,101780.41
2022-08-08T11:43:58.127Z,101774.06
2022-08-08T11:46:30.477Z,101774.44
2022-08-08T11:49:04.364Z,101774.00
2022-08-08T11:51:39.672Z,101767.53
2022-08-08T11:54:31.390Z,101771.19
2022-08-08T11:57:14.479Z,101772.47
2022-08-08T11:59:58.401Z,101776.00
2022-08-08T12:02:33.649Z,101759.72
2022-08-08T12:05:06.827Z,101762.59
2022-08-08T12:07:46.671Z,101753.75
2022-08-08T12:10:16.097Z,101760.25
2022-08-08T12:12:48.625Z,101759.22
2022-08-08T12:15:28.605Z,101757.19
2022-08-08T12:17:56.496Z,101745.00
2022-08-08T12:20:26.453Z,101749.09
2022-08-08T12:22:57.164Z,101747.91
2022-08-08T12:25:30.003Z,101749.41
2022-08-08T12:28:15.464Z,101742.72
2022-08-08T12:30:47.926Z,101736.22
2022-08-08T12:33:19.474Z,101733.66
2022-08-08T12:35:52.253Z,101741.69
2022-08-08T12:38:30.427Z,101735.13
2022-08-08T12:41:18.217Z,101734.81
2022-08-08T12:43:59.809Z,101722.09
2022-08-08T12:46:28.847Z,101726.53
2022-08-08T12:51:59.333Z,101717.84
2022-08-08T12:54:34.084Z,101700.97
2022-08-08T12:57:14.928Z,101710.41
2022-08-08T13:00:05.010Z,101716.47
2022-08-08T13:02:36.161Z,101708.22
2022-08-08T13:05:25.669Z,101699.56
2022-08-08T13:08:03.043Z,101705.41
2022-08-08T13:10:36.285Z,101711.47
2022-08-08T13:13:07.995Z,101705.63
2022-08-08T13:15:36.936Z,101703.19
2022-08-08T13:18:11.370Z,101694.34
2022-08-08T13:20:45.736Z,101703.38
2022-08-08T13:23:30.650Z,101703.00
2022-08-08T13:26:03.963Z,101706.78
2022-08-08T13:28:42.380Z,101706.38
2022-08-08T13:31:16.590Z,101709.81
2022-08-08T13:33:47.342Z,101707.94
2022-08-08T13:36:25.897Z,101699.09
2022-08-08T13:39:00.444Z,101705.06
2022-08-08T13:41:37.786Z,101698.13
2022-08-08T13:44:11.543Z,101697.56
2022-08-08T13:46:39.804Z,101685.38
2022-08-08T13:50:39.398Z,101692.72
2022-08-08T13:52:06.469Z,101691.28
2022-08-08T13:54:44.068Z,101698.88
2022-08-08T13:57:14.388Z,101693.34
2022-08-08T13:59:48.235Z,101687.91
2022-08-08T14:02:20.843Z,101697.28
2022-08-08T14:04:57.132Z,101682.19
2022-08-08T14:07:29.925Z,101685.09
2022-08-08T14:10:11.669Z,101677.19
2022-08-08T14:12:43.778Z,101679.38
2022-08-08T14:15:31.540Z,101678.53
2022-08-08T14:18:36.587Z,101672.31
2022-08-08T14:21:03.794Z,101672.41
2022-08-08T14:24:06.651Z,101677.69
2022-08-08T14:26:33.232Z,101670.50
2022-08-08T14:29:01.495Z,101668.34
2022-08-08T14:31:37.183Z,101664.81
2022-08-08T14:34:23.366Z,101652.75
2022-08-08T14:36:57.505Z,101651.56
2022-08-08T14:39:25.317Z,101666.63
2022-08-08T14:42:16.864Z,101655.28
2022-08-08T14:44:55.150Z,101658.00
2022-08-08T14:47:23.388Z,101656.00
2022-08-08T14:50:05.832Z,101643.25
2022-08-08T14:52:49.934Z,101638.81
2022-08-08T14:55:22.732Z,101648.13
2022-08-08T14:58:12.061Z,101648.41
2022-08-08T15:00:44.493Z,101642.03
2022-08-08T15:03:16.047Z,101653.09
2022-08-08T15:05:53.232Z,101636.88
2022-08-08T15:08:34.565Z,101636.56
2022-08-08T15:11:09.170Z,101636.53
2022-08-08T15:14:01.130Z,101641.75
2022-08-08T15:16:29.341Z,101648.66
2022-08-08T15:19:03.094Z,101642.91
2022-08-08T15:21:31.468Z,101645.69
2022-08-08T15:23:59.698Z,101638.44
2022-08-08T15:26:28.969Z,101633.44
2022-08-08T15:28:58.601Z,101641.16
2022-08-08T15:32:03.196Z,101635.00
2022-08-08T15:34:18.461Z,101640.22
2022-08-08T15:36:58.679Z,101636.16
2022-08-08T15:39:28.851Z,101632.25
2022-08-08T15:41:59.270Z,101630.53
2022-08-08T15:44:29.490Z,101630.09
2022-08-08T15:46:57.897Z,101627.47
2022-08-08T15:49:26.633Z,101625.69
2022-08-08T15:51:57.395Z,101636.44
2022-08-08T15:54:38.389Z,101616.75
2022-08-08T15:57:08.864Z,101619.88
2022-08-08T16:00:05.099Z,101621.00
2022-08-08T16:02:31.038Z,101617.78
2022-08-08T16:04:59.824Z,101613.41
2022-08-08T16:07:51.776Z,101608.31
2022-08-08T16:13:10.007Z,101609.66
2022-08-08T16:13:27.122Z,101610.31
2022-08-08T16:15:58.897Z,101610.22
2022-08-08T16:18:27.857Z,101617.34
2022-08-08T16:21:00.296Z,101612.63
2022-08-08T16:23:32.495Z,101620.78
2022-08-08T16:26:04.370Z,101617.28
2022-08-08T16:28:36.039Z,101606.41
2022-08-08T16:31:08.225Z,101610.22
2022-08-08T16:33:38.451Z,101613.41
2022-08-08T16:36:09.699Z,101614.03
2022-08-08T16:38:45.057Z,101609.03
2022-08-08T16:41:18.414Z,101611.19
2022-08-08T16:43:49.017Z,101619.88
2022-08-08T16:46:38.493Z,101608.16
2022-08-08T16:49:09.356Z,101610.84
2022-08-08T16:55:00.965Z,101610.97
2022-08-08T16:55:05.141Z,101611.88
2022-08-08T16:58:11.741Z,101601.94
2022-08-08T17:00:08.792Z,101607.31
2022-08-08T17:02:44.681Z,101608.41
2022-08-08T17:05:14.151Z,101604.34
2022-08-08T17:07:42.300Z,101606.03
2022-08-08T17:10:11.616Z,101606.91
2022-08-08T17:12:46.836Z,101602.06
2022-08-08T17:15:21.272Z,101607.81
2022-08-08T17:18:02.772Z,101610.47
2022-08-08T17:20:31.865Z,101606.50
2022-08-08T17:23:18.166Z,101606.81
2022-08-08T17:25:52.587Z,101598.13
2022-08-08T17:28:34.942Z,101591.28
2022-08-08T17:31:44.202Z,101595.72
2022-08-08T17:34:48.250Z,101601.03
2022-08-08T17:36:55.165Z,101596.00
2022-08-08T17:40:03.322Z,101591.34
2022-08-08T17:42:16.568Z,101602.69
2022-08-08T17:44:46.585Z,101608.91
2022-08-08T17:47:24.110Z,101603.72
2022-08-08T17:50:01.058Z,101607.53
2022-08-08T17:52:34.377Z,101597.91
2022-08-08T17:55:05.502Z,101599.97
2022-08-08T17:57:37.611Z,101598.28
2022-08-08T18:00:19.342Z,101605.66
2022-08-08T18:02:58.094Z,101594.84
2022-08-08T18:05:49.516Z,101602.38
2022-08-08T18:08:37.942Z,101611.66
2022-08-08T18:11:11.728Z,101618.34
2022-08-08T18:13:42.674Z,101618.50
2022-08-08T18:16:11.607Z,101616.44
2022-08-08T18:18:42.821Z,101616.28
2022-08-08T18:21:34.813Z,101620.25
2022-08-08T18:24:02.870Z,101623.16
2022-08-08T18:26:30.713Z,101617.66
2022-08-08T18:28:58.481Z,101618.97
2022-08-08T18:31:28.422Z,101631.50
2022-08-08T18:34:11.221Z,101626.56
2022-08-08T18:36:45.509Z,101629.16
2022-08-08T18:39:27.715Z,101629.53
2022-08-08T18:42:03.076Z,101629.09
2022-08-08T18:44:34.737Z,101639.03
2022-08-08T18:47:04.597Z,101637.75
2022-08-08T18:49:54.704Z,101641.16
2022-08-08T18:52:23.617Z,101635.84
2022-08-08T18:55:00.808Z,101641.63
2022-08-08T18:57:41.718Z,101647.19
2022-08-08T19:00:15.567Z,101648.47
2022-08-08T19:02:48.497Z,101647.78
2022-08-08T19:05:32.227Z,101652.06
2022-08-08T19:08:24.890Z,101649.75
2022-08-08T19:10:57.690Z,101655.78
2022-08-08T19:13:38.299Z,101665.84
2022-08-08T19:16:18.273Z,101670.03
2022-08-08T19:18:54.491Z,101663.47
2022-08-08T19:21:31.085Z,101668.75
2022-08-08T19:24:05.293Z,101676.28
2022-08-08T19:26:34.566Z,101676.22
2022-08-08T19:29:02.375Z,101680.69
2022-08-08T19:31:34.925Z,101683.41
2022-08-08T19:34:35.619Z,101691.38
2022-08-08T19:36:53.433Z,101696.47
2022-08-08T19:39:24.697Z,101698.47
2022-08-08T19:41:52.615Z,101701.75
2022-08-08T19:44:42.397Z,101705.41
2022-08-08T19:47:08.277Z,101711.16
2022-08-08T19:49:38.062Z,101713.19
2022-08-08T19:52:07.231Z,101727.56
2022-08-08T19:54:39.658Z,101724.06
2022-08-08T19:57:07.965Z,101729.19
2022-08-08T19:59:35.785Z,101743.06
2022-08-08T20:02:05.327Z,101739.22
2022-08-08T20:04:33.548Z,101745.31
2022-08-08T20:07:05.493Z,101756.59
2022-08-08T20:09:56.209Z,101762.03
2022-08-08T20:12:33.044Z,101764.94
2022-08-08T20:15:15.072Z,101764.47
2022-08-08T20:17:45.981Z,101768.53
2022-08-08T20:20:18.947Z,101775.28
2022-08-08T20:22:52.640Z,101773.00
2022-08-08T20:25:29.810Z,101775.84
2022-08-08T20:28:02.155Z,101781.31
2022-08-08T20:30:53.309Z,101782.03
2022-08-08T20:35:57.987Z,101790.78
2022-08-08T20:38:32.837Z,101795.09
2022-08-08T20:41:16.982Z,101794.50
2022-08-08T20:43:48.118Z,101795.50
2022-08-08T20:46:20.673Z,101792.13
2022-08-08T20:48:51.114Z,101789.53
2022-08-08T20:51:20.848Z,101790.97
2022-08-08T20:54:01.104Z,101787.41
2022-08-08T20:56:35.699Z,101799.50
2022-08-08T20:59:05.838Z,101792.34
2022-08-08T21:02:05.542Z,101785.31
2022-08-08T21:04:23.329Z,101789.75
2022-08-08T21:06:53.107Z,101780.97
2022-08-08T21:09:21.865Z,101798.44
2022-08-08T21:12:02.740Z,101791.16
2022-08-08T21:14:33.478Z,101794.25
2022-08-08T21:17:03.094Z,101802.22
2022-08-08T21:19:44.258Z,101808.25
2022-08-08T21:22:14.634Z,101807.56
2022-08-08T21:24:52.734Z,101801.16
2022-08-08T21:28:05.024Z,101800.06
2022-08-08T21:30:19.254Z,101804.91
2022-08-08T21:32:52.242Z,101817.81
2022-08-08T21:36:16.629Z,101820.28
2022-08-08T21:38:16.213Z,101817.84
2022-08-08T21:40:55.947Z,101826.22
2022-08-08T21:43:30.967Z,101825.06
2022-08-08T21:48:06.842Z,101826.41
2022-08-08T21:48:51.768Z,101833.81
2022-08-08T21:54:31.174Z,101827.56
2022-08-08T21:54:33.384Z,101828.63
2022-08-08T21:56:59.206Z,101829.41
2022-08-08T22:00:01.850Z,101820.41
2022-08-08T22:02:19.437Z,101815.34
2022-08-08T22:04:52.533Z,101821.91
2022-08-08T22:07:20.384Z,101829.84
2022-08-08T22:09:54.953Z,101838.38
2022-08-08T22:12:22.707Z,101825.97
2022-08-08T22:14:54.443Z,101823.88
2022-08-08T22:17:22.196Z,101837.25
2022-08-08T22:20:12.420Z,101825.81
2022-08-08T22:22:38.731Z,101830.53
2022-08-08T22:25:17.760Z,101824.47
2022-08-08T22:28:03.562Z,101834.47
2022-08-08T22:30:34.168Z,101835.84
2022-08-08T22:33:03.358Z,101835.75
2022-08-08T22:36:04.832Z,101835.63
2022-08-08T22:38:47.950Z,101838.84
2022-08-08T22:41:20.948Z,101846.22
2022-08-08T22:44:05.437Z,101842.56
2022-08-08T22:46:38.920Z,101840.81
2022-08-08T22:49:09.045Z,101839.84
2022-08-08T22:51:46.106Z,101852.69
2022-08-08T22:54:32.638Z,101848.50
2022-08-08T22:57:11.591Z,101849.56
2022-08-08T22:59:58.971Z,101850.72
2022-08-08T23:02:29.619Z,101853.28
2022-08-08T23:05:04.796Z,101848.34
2022-08-08T23:07:50.886Z,101855.13
2022-08-08T23:10:25.279Z,101850.91
2022-08-08T23:12:54.642Z,101847.69
2022-08-08T23:16:41.764Z,101854.84
2022-08-08T23:18:12.609Z,101856.72
2022-08-08T23:20:43.563Z,101852.16
2022-08-08T23:23:12.489Z,101855.47
2022-08-08T23:25:48.025Z,101849.69
2022-08-08T23:28:18.956Z,101854.00
2022-08-08T23:30:47.597Z,101856.09
2022-08-08T23:33:21.354Z,101853.59
2022-08-08T23:36:08.312Z,101858.41
2022-08-08T23:38:44.086Z,101860.63
2022-08-08T23:41:23.131Z,101858.28
2022-08-08T23:43:54.403Z,101858.75
2022-08-08T23:49:02.103Z,101859.50
2022-08-08T23:49:18.806Z,101857.53
2022-08-08T23:52:07.191Z,101857.44
2022-08-08T23:54:42.126Z,101860.75
2022-08-08T23:57:27.496Z,101860.38
